Time;durP1;ratioP1;P1;durP2;ratioP2;P2;SDS_P1;SDS_P2;PMS_P1;PMS_P2;Temp;Humidity;BMP_temperature;BMP_pressure;BME280_temperature;BME280_humidity;BME280_pressure;Samples;Min_cycle;Max_cycle;Signal;HPM_P1;HPM_P2
2022/06/09 00:00:01;;;;;;;1.35;0.43;;;13.20;93.00;;;;;;5042537;28;20037;-85
2022/06/09 00:02:30;;;;;;;0.30;0.30;;;13.30;93.00;;;;;;5039602;28;20037;-86
2022/06/09 00:04:57;;;;;;;0.10;0.10;;;13.30;92.90;;;;;;5038562;28;20030;-85
2022/06/09 00:07:24;;;;;;;0.10;0.10;;;13.20;93.20;;;;;;5044528;28;20091;-85
2022/06/09 00:09:56;;;;;;;0.10;0.10;;;13.10;93.20;;;;;;5042042;28;20519;-87
2022/06/09 00:12:23;;;;;;;0.00;0.00;;;13.00;93.60;;;;;;5041407;28;20377;-88
2022/06/09 00:14:49;;;;;;;0.75;0.75;;;13.00;93.50;;;;;;5045536;28;20029;-88
2022/06/09 00:17:15;;;;;;;0.27;0.27;;;13.10;93.40;;;;;;5039152;28;20102;-87
2022/06/09 00:19:41;;;;;;;0.20;0.20;;;13.20;93.30;;;;;;5041495;28;20514;-87
2022/06/09 00:22:07;;;;;;;2.15;1.27;;;13.20;93.10;;;;;;5039024;28;20025;-88
2022/06/09 00:24:33;;;;;;;0.90;0.30;;;13.20;93.40;;;;;;5044813;28;20086;-87
2022/06/09 00:26:59;;;;;;;0.13;0.13;;;13.10;93.50;;;;;;5042350;28;20033;-87
2022/06/09 00:29:24;;;;;;;0.55;0.47;;;13.10;93.70;;;;;;5042632;28;20056;-88
2022/06/09 00:31:50;;;;;;;0.10;0.10;;;13.20;93.20;;;;;;5042198;28;20116;-87
2022/06/09 00:34:15;;;;;;;2.97;1.17;;;13.10;93.40;;;;;;5041939;28;20037;-87
2022/06/09 00:36:41;;;;;;;0.10;0.10;;;12.90;93.50;;;;;;5040226;28;20033;-87
2022/06/09 00:39:07;;;;;;;0.30;0.30;;;12.80;93.90;;;;;;5042952;28;20037;-88
2022/06/09 00:41:41;;;;;;;0.37;0.37;;;12.90;93.90;;;;;;5043403;28;20481;-86
2022/06/09 00:44:18;;;;;;;0.52;0.52;;;13.00;93.60;;;;;;5040520;28;22041;-89
2022/06/09 00:46:46;;;;;;;0.10;0.10;;;13.10;93.40;;;;;;5039923;28;20037;-79
2022/06/09 00:49:23;;;;;;;0.17;0.17;;;13.10;93.50;;;;;;5041705;28;20041;-79
2022/06/09 00:51:58;;;;;;;0.20;0.20;;;13.10;93.50;;;;;;5040558;28;20040;-79
2022/06/09 00:54:30;;;;;;;0.10;0.10;;;13.00;93.60;;;;;;5039510;28;20814;-79
2022/06/09 00:57:05;;;;;;;0.10;0.10;;;13.00;93.70;;;;;;5040852;28;20095;-77
2022/06/09 00:59:34;;;;;;;0.40;0.40;;;13.00;93.70;;;;;;5026260;28;20124;-77
2022/06/09 01:02:04;;;;;;;2.10;0.90;;;13.00;93.70;;;;;;5040786;28;20045;-77
2022/06/09 01:04:32;;;;;;;0.35;0.35;;;13.00;93.70;;;;;;5041857;28;20041;-77
2022/06/09 01:07:04;;;;;;;0.17;0.17;;;13.00;93.60;;;;;;5041414;28;20824;-78
2022/06/09 01:09:31;;;;;;;0.10;0.10;;;13.10;93.50;;;;;;5023489;28;20151;-78
2022/06/09 01:11:57;;;;;;;2.00;1.23;;;13.10;93.60;;;;;;5041616;28;20021;-79
2022/06/09 01:14:30;;;;;;;0.10;0.10;;;13.00;93.70;;;;;;5023166;28;20365;-79
2022/06/09 01:17:08;;;;;;;0.10;0.10;;;13.00;93.80;;;;;;5039649;28;20041;-79
2022/06/09 01:19:33;;;;;;;1.45;0.60;;;13.10;93.60;;;;;;5038560;28;20033;-79
2022/06/09 01:22:05;;;;;;;1.17;0.93;;;13.10;93.30;;;;;;5040933;28;20044;-78
2022/06/09 01:24:46;;;;;;;0.00;0.00;;;13.10;93.40;;;;;;5041450;28;20032;-79
2022/06/09 01:27:48;;;;;;;0.30;0.30;;;13.10;93.60;;;;;;5039344;28;20028;-79
2022/06/09 01:30:32;;;;;;;0.10;0.10;;;13.10;93.60;;;;;;5037309;28;20036;-79
2022/06/09 01:33:06;;;;;;;0.22;0.22;;;13.10;93.60;;;;;;5041129;28;20687;-78
2022/06/09 01:35:38;;;;;;;0.10;0.10;;;13.10;93.80;;;;;;5042692;28;20024;-79
2022/06/09 01:38:04;;;;;;;0.88;0.63;;;13.00;93.80;;;;;;5039772;28;20045;-79
2022/06/09 01:40:30;;;;;;;0.10;0.10;;;13.00;93.80;;;;;;5023357;28;20056;-79
2022/06/09 01:42:57;;;;;;;0.10;0.10;;;12.90;93.80;;;;;;5039883;28;20090;-79
2022/06/09 01:45:30;;;;;;;0.25;0.25;;;12.90;94.10;;;;;;5038623;28;20033;-78
2022/06/09 01:48:16;;;;;;;3.10;0.47;;;12.90;94.10;;;;;;5041702;28;20440;-78
2022/06/09 01:51:03;;;;;;;29.20;3.50;;;13.00;94.00;;;;;;5042232;28;20083;-78
2022/06/09 01:53:41;;;;;;;0.50;0.47;;;13.20;93.70;;;;;;5041384;28;20087;-78
2022/06/09 01:56:17;;;;;;;0.00;0.00;;;13.20;93.60;;;;;;5022415;28;20099;-78
2022/06/09 01:59:07;;;;;;;0.03;0.03;;;13.30;93.20;;;;;;5039398;28;20040;-79
2022/06/09 02:01:38;;;;;;;0.30;0.30;;;13.30;93.20;;;;;;5039261;28;20033;-80
2022/06/09 02:04:10;;;;;;;0.20;0.20;;;13.40;93.10;;;;;;5039324;28;20048;-80
2022/06/09 02:06:36;;;;;;;0.15;0.15;;;13.30;93.30;;;;;;5039656;28;20086;-79
2022/06/09 02:09:04;;;;;;;0.38;0.38;;;13.30;93.30;;;;;;5040504;28;20039;-79
2022/06/09 02:11:30;;;;;;;0.75;0.63;;;13.30;93.40;;;;;;5042514;28;20033;-79
2022/06/09 02:13:58;;;;;;;0.20;0.20;;;13.20;93.60;;;;;;5038442;28;20037;-79
2022/06/09 02:16:24;;;;;;;0.13;0.13;;;13.20;93.70;;;;;;5037895;28;20466;-79
2022/06/09 02:18:53;;;;;;;0.20;0.20;;;13.20;93.50;;;;;;5038373;28;20045;-79
2022/06/09 02:21:32;;;;;;;1.60;0.90;;;13.30;93.60;;;;;;5039513;28;20644;-80
2022/06/09 02:23:58;;;;;;;0.15;0.15;;;13.20;93.60;;;;;;5039373;28;20151;-79
2022/06/09 02:26:24;;;;;;;0.10;0.10;;;13.30;93.50;;;;;;5039748;28;20033;-79
2022/06/09 02:28:50;;;;;;;2.53;1.27;;;13.30;93.40;;;;;;5039029;28;20060;-79
2022/06/09 02:31:17;;;;;;;0.37;0.37;;;13.30;93.30;;;;;;5037856;28;20021;-80
2022/06/09 02:33:43;;;;;;;0.10;0.10;;;13.40;93.40;;;;;;5033117;28;20039;-79
2022/06/09 02:36:09;;;;;;;0.10;0.10;;;13.30;93.20;;;;;;5038492;28;20039;-79
2022/06/09 02:38:35;;;;;;;0.00;0.00;;;13.30;93.40;;;;;;5038756;28;20087;-79
2022/06/09 02:41:02;;;;;;;1.55;1.45;;;13.30;93.40;;;;;;5040441;28;20283;-79
2022/06/09 02:43:28;;;;;;;0.10;0.10;;;13.30;93.50;;;;;;5036741;28;20045;-79
2022/06/09 02:45:53;;;;;;;0.38;0.38;;;13.30;93.40;;;;;;5038260;28;20041;-80
2022/06/09 02:48:20;;;;;;;0.20;0.20;;;13.30;93.60;;;;;;5021038;28;20053;-80
2022/06/09 02:50:46;;;;;;;;;;;13.20;93.70;;;;;;5040126;28;20033;-80
2022/06/09 02:53:13;;;;;;;1.08;0.35;;;13.30;93.80;;;;;;5038721;28;19924;-80
2022/06/09 02:55:39;;;;;;;0.22;0.22;;;13.20;93.80;;;;;;5037993;28;20033;-79
2022/06/09 02:58:05;;;;;;;0.10;0.10;;;13.10;93.90;;;;;;5040112;28;20094;-79
2022/06/09 03:00:31;;;;;;;0.20;0.20;;;13.20;94.00;;;;;;5036638;28;20125;-79
2022/06/09 03:03:03;;;;;;;0.13;0.13;;;13.20;94.20;;;;;;5039168;28;20201;-78
2022/06/09 03:05:32;;;;;;;0.43;0.43;;;13.20;93.90;;;;;;5041638;28;20037;-79
2022/06/09 03:07:58;;;;;;;3.08;1.98;;;13.10;94.00;;;;;;5041074;28;20476;-79
2022/06/09 03:10:24;;;;;;;2.40;1.50;;;13.10;94.10;;;;;;5039226;28;20037;-79
2022/06/09 03:12:50;;;;;;;0.20;0.20;;;13.00;94.20;;;;;;5038614;28;20033;-79
2022/06/09 03:15:18;;;;;;;0.20;0.20;;;13.10;94.30;;;;;;5037498;28;20026;-79
2022/06/09 03:17:44;;;;;;;0.10;0.10;;;13.10;94.10;;;;;;5039305;28;20173;-79
2022/06/09 03:20:15;;;;;;;2.20;1.35;;;13.10;94.20;;;;;;5038912;28;20032;-78
2022/06/09 03:22:41;;;;;;;28.45;0.82;;;13.10;94.00;;;;;;5038481;28;20041;-79
2022/06/09 03:25:07;;;;;;;0.30;0.30;;;13.10;93.80;;;;;;5018788;28;20029;-79
2022/06/09 03:27:33;;;;;;;0.68;0.68;;;13.20;93.90;;;;;;5036573;28;20033;-79
2022/06/09 03:30:01;;;;;;;2.23;0.93;;;13.20;93.60;;;;;;5020740;28;20048;-79
2022/06/09 03:32:27;;;;;;;0.52;0.32;;;13.20;93.60;;;;;;5041414;28;20076;-79
2022/06/09 03:34:53;;;;;;;0.13;0.13;;;13.30;93.60;;;;;;5039261;28;20033;-80
2022/06/09 03:37:19;;;;;;;0.10;0.10;;;13.20;93.80;;;;;;5037351;28;20056;-79
2022/06/09 03:39:44;;;;;;;8.27;1.20;;;13.20;93.80;;;;;;5038686;28;20115;-80
2022/06/09 03:42:10;;;;;;;0.10;0.10;;;13.20;93.80;;;;;;5039729;28;20802;-79
2022/06/09 03:44:36;;;;;;;0.30;0.30;;;13.20;94.00;;;;;;5022965;28;20048;-79
2022/06/09 03:47:02;;;;;;;3.93;1.90;;;13.20;93.80;;;;;;5037099;28;20570;-80
2022/06/09 03:49:27;;;;;;;0.00;0.00;;;13.10;94.10;;;;;;5036161;28;20083;-79
2022/06/09 03:51:53;;;;;;;0.38;0.30;;;13.10;94.20;;;;;;5040537;28;20467;-79
2022/06/09 03:54:19;;;;;;;0.47;0.47;;;13.10;94.30;;;;;;5036809;28;20396;-79
2022/06/09 03:56:44;;;;;;;0.20;0.17;;;13.10;94.40;;;;;;5039483;28;20029;-78
2022/06/09 03:59:11;;;;;;;1.43;0.90;;;13.10;94.30;;;;;;5038941;28;20099;-79
2022/06/09 04:01:37;;;;;;;0.32;0.28;;;13.20;94.10;;;;;;5035783;28;20021;-79
2022/06/09 04:04:02;;;;;;;0.98;0.98;;;13.30;93.90;;;;;;5038768;28;20859;-79
2022/06/09 04:06:28;;;;;;;0.10;0.10;;;13.30;93.90;;;;;;5037835;28;20032;-78
2022/06/09 04:08:54;;;;;;;0.10;0.10;;;13.20;94.10;;;;;;5037785;28;20045;-78
2022/06/09 04:11:21;;;;;;;1.67;0.57;;;13.20;94.20;;;;;;5021719;28;20129;-78
2022/06/09 04:13:47;;;;;;;0.10;0.10;;;13.20;94.30;;;;;;5037050;28;20175;-78
2022/06/09 04:16:27;;;;;;;0.10;0.10;;;13.10;94.50;;;;;;5035519;28;20029;-78
2022/06/09 04:18:55;;;;;;;0.30;0.30;;;13.10;94.60;;;;;;5031431;28;20039;-78
2022/06/09 04:21:22;;;;;;;0.15;0.15;;;13.10;94.40;;;;;;5040666;28;20025;-78
2022/06/09 04:23:48;;;;;;;0.05;0.05;;;13.30;94.40;;;;;;5043092;28;20094;-78
2022/06/09 04:26:18;;;;;;;5.32;1.08;;;13.20;94.40;;;;;;5024517;28;20466;-79
2022/06/09 04:28:44;;;;;;;1.25;0.68;;;13.20;94.50;;;;;;5039965;28;20115;-78
2022/06/09 04:31:11;;;;;;;0.65;0.43;;;13.20;94.60;;;;;;5043060;28;20078;-78
2022/06/09 04:33:37;;;;;;;0.05;0.05;;;13.20;94.60;;;;;;5043071;28;20071;-78
2022/06/09 04:36:04;;;;;;;1.70;1.07;;;13.10;94.80;;;;;;5041276;28;20083;-78
2022/06/09 04:38:29;;;;;;;0.22;0.20;;;13.20;94.80;;;;;;5043465;28;20115;-78
2022/06/09 04:40:56;;;;;;;0.50;0.50;;;13.20;94.60;;;;;;5025177;28;20033;-80
2022/06/09 04:43:22;;;;;;;0.93;0.93;;;13.20;94.90;;;;;;5040466;28;20124;-79
2022/06/09 04:45:48;;;;;;;0.20;0.20;;;13.20;94.80;;;;;;5037469;28;20072;-87
2022/06/09 04:48:13;;;;;;;0.10;0.10;;;13.20;94.80;;;;;;5043544;28;20085;-88
2022/06/09 04:50:42;;;;;;;2.63;1.30;;;13.20;95.00;;;;;;5047606;28;20029;-91
2022/06/09 04:53:09;;;;;;;2.75;1.42;;;13.20;94.90;;;;;;5044708;28;20033;-90
2022/06/09 04:55:35;;;;;;;;;;;13.20;95.10;;;;;;5045073;28;20036;-90
2022/06/09 04:58:01;;;;;;;0.10;0.10;;;13.20;95.10;;;;;;5037257;28;19913;-91
2022/06/09 05:00:27;;;;;;;0.20;0.20;;;13.20;94.90;;;;;;5045515;28;20040;-89
2022/06/09 05:02:54;;;;;;;0.05;0.05;;;13.30;95.10;;;;;;5043500;28;20037;-87
2022/06/09 05:05:22;;;;;;;;;;;13.30;95.10;;;;;;5046162;28;20041;-90
2022/06/09 05:07:48;;;;;;;0.10;0.10;;;13.30;94.80;;;;;;5046070;28;19912;-90
2022/06/09 05:10:14;;;;;;;1.15;0.88;;;13.40;94.60;;;;;;5037773;28;20025;-92
2022/06/09 05:12:40;;;;;;;0.20;0.20;;;13.50;94.50;;;;;;5042726;28;20044;-88
2022/06/09 05:15:06;;;;;;;0.23;0.23;;;13.50;94.50;;;;;;5042942;28;20547;-88
2022/06/09 05:17:32;;;;;;;0.13;0.13;;;13.40;94.50;;;;;;5026389;28;20661;-89
2022/06/09 05:19:58;;;;;;;0.20;0.20;;;13.40;94.60;;;;;;5042982;28;20171;-86
2022/06/09 05:22:24;;;;;;;0.53;0.50;;;13.40;94.50;;;;;;5039686;28;20304;-84
2022/06/09 05:24:49;;;;;;;4.63;0.93;;;13.40;94.70;;;;;;5040117;28;20037;-87
2022/06/09 05:27:15;;;;;;;0.70;0.70;;;13.40;94.50;;;;;;5042786;28;20033;-83
2022/06/09 05:29:41;;;;;;;0.53;0.53;;;13.40;94.70;;;;;;5041778;28;20057;-87
2022/06/09 05:32:08;;;;;;;1.00;0.90;;;13.50;94.50;;;;;;5043155;28;20029;-87
2022/06/09 05:34:34;;;;;;;0.52;0.50;;;13.60;94.40;;;;;;5024903;28;20058;-87
2022/06/09 05:37:00;;;;;;;0.20;0.20;;;13.60;94.30;;;;;;5040387;28;20033;-87
2022/06/09 05:45:00;;;;;;;0.10;0.10;;;14.10;93.60;;;;;;5041447;28;20055;-86
2022/06/09 05:47:27;;;;;;;0.00;0.00;;;14.20;93.30;;;;;;5043328;28;20045;-88
2022/06/09 05:49:53;;;;;;;;;;;14.20;92.90;;;;;;5041826;28;20043;-90
2022/06/09 05:52:25;;;;;;;0.13;0.13;;;14.10;93.10;;;;;;5041979;28;19913;-89
2022/06/09 05:54:51;;;;;;;0.88;0.85;;;14.10;93.40;;;;;;5026103;28;20029;-88
2022/06/09 05:57:18;;;;;;;3.20;0.73;;;14.30;93.20;;;;;;5040351;28;20128;-85
2022/06/09 05:59:44;;;;;;;0.52;0.52;;;14.40;92.90;;;;;;5042048;28;20098;-85
2022/06/09 06:02:11;;;;;;;0.17;0.17;;;14.60;92.50;;;;;;5040613;28;20041;-86
2022/06/09 06:04:37;;;;;;;0.60;0.60;;;14.60;92.50;;;;;;5039916;28;20033;-86
2022/06/09 06:07:03;;;;;;;0.73;0.73;;;14.50;92.50;;;;;;5040676;28;20021;-86
2022/06/09 06:09:28;;;;;;;1.60;0.83;;;14.50;92.80;;;;;;5035265;28;20025;-86
2022/06/09 06:11:54;;;;;;;0.30;0.30;;;14.70;92.80;;;;;;5025634;28;20130;-86
2022/06/09 06:14:23;;;;;;;0.83;0.63;;;15.30;91.60;;;;;;5041983;28;20021;-85
2022/06/09 06:16:49;;;;;;;0.28;0.28;;;15.20;91.70;;;;;;5023978;28;20587;-88
2022/06/09 06:19:17;;;;;;;1.45;0.77;;;15.00;91.90;;;;;;5040885;28;20537;-88
2022/06/09 06:21:45;;;;;;;0.00;0.00;;;15.00;91.90;;;;;;5024596;28;20029;-86
2022/06/09 06:24:11;;;;;;;0.30;0.30;;;15.20;91.70;;;;;;5033748;28;20763;-85
2022/06/09 06:26:37;;;;;;;0.63;0.63;;;15.50;91.50;;;;;;5039168;28;20112;-89
2022/06/09 06:29:06;;;;;;;2.70;0.65;;;15.60;91.30;;;;;;5035316;28;20041;-87
2022/06/09 06:31:31;;;;;;;0.20;0.10;;;15.50;91.10;;;;;;5035194;28;20043;-88
2022/06/09 06:33:58;;;;;;;0.50;0.43;;;15.30;91.40;;;;;;5025483;28;20037;-86
2022/06/09 06:36:24;;;;;;;0.08;0.08;;;15.00;92.10;;;;;;5039969;28;20488;-87
2022/06/09 06:38:50;;;;;;;0.20;0.20;;;14.80;92.10;;;;;;5041869;28;20035;-88
2022/06/09 06:41:17;;;;;;;0.10;0.10;;;14.90;91.70;;;;;;5043167;28;20263;-90
2022/06/09 06:43:48;;;;;;;0.22;0.22;;;14.70;92.40;;;;;;5025333;28;20053;-90
2022/06/09 06:46:14;;;;;;;0.22;0.22;;;14.40;92.60;;;;;;5043838;28;20017;-88
2022/06/09 06:48:40;;;;;;;0.10;0.10;;;14.40;93.10;;;;;;5040521;28;20448;-90
2022/06/09 06:51:06;;;;;;;0.17;0.17;;;14.50;93.00;;;;;;5041446;28;20597;-89
2022/06/09 06:53:33;;;;;;;0.05;0.05;;;14.60;92.80;;;;;;5022082;28;20031;-89
2022/06/09 06:55:59;;;;;;;0.10;0.10;;;14.70;92.90;;;;;;5040638;28;20041;-89
2022/06/09 06:58:24;;;;;;;0.20;0.20;;;14.80;92.40;;;;;;5026522;28;20542;-89
2022/06/09 07:00:50;;;;;;;0.20;0.20;;;15.00;92.30;;;;;;5041535;28;20102;-90
2022/06/09 07:03:16;;;;;;;0.00;0.00;;;15.20;91.60;;;;;;5025705;28;20427;-89
2022/06/09 07:05:42;;;;;;;0.00;0.00;;;15.20;91.90;;;;;;5045697;28;20068;-89
2022/06/09 07:08:08;;;;;;;0.00;0.00;;;15.40;91.70;;;;;;5026606;28;20029;-89
2022/06/09 07:10:35;;;;;;;0.20;0.20;;;16.20;90.60;;;;;;5044098;28;20120;-90
2022/06/09 07:13:01;;;;;;;0.17;0.17;;;18.40;82.60;;;;;;5045110;28;20025;-89
2022/06/09 07:15:28;;;;;;;0.43;0.20;;;17.90;84.90;;;;;;5025293;28;20128;-90
2022/06/09 07:17:53;;;;;;;0.45;0.28;;;18.30;83.00;;;;;;5043914;28;20444;-89
2022/06/09 07:20:20;;;;;;;1.60;0.60;;;17.80;84.40;;;;;;5038727;28;20140;-89
2022/06/09 07:22:46;;;;;;;0.20;0.20;;;18.00;83.30;;;;;;5041059;28;20033;-90
2022/06/09 07:25:19;;;;;;;3.20;1.13;;;18.40;81.80;;;;;;5042084;28;20025;-90
2022/06/09 07:27:46;;;;;;;0.05;0.05;;;19.80;76.40;;;;;;5044174;28;20056;-90
2022/06/09 07:30:12;;;;;;;0.75;0.63;;;22.70;68.90;;;;;;5022721;28;20025;-89
2022/06/09 07:32:37;;;;;;;0.00;0.00;;;27.80;55.40;;;;;;5041474;28;20086;-90
2022/06/09 07:35:04;;;;;;;2.33;0.67;;;24.70;60.60;;;;;;5026753;28;20319;-89
2022/06/09 07:37:30;;;;;;;0.15;0.15;;;22.70;61.50;;;;;;5031838;28;20049;-90
2022/06/09 07:39:56;;;;;;;0.00;0.00;;;24.20;57.50;;;;;;5038420;28;20030;-89
2022/06/09 07:42:21;;;;;;;0.07;0.07;;;23.20;60.10;;;;;;5044910;28;20033;-90
2022/06/09 07:44:47;;;;;;;0.65;0.52;;;21.40;66.00;;;;;;5026831;28;20025;-89
2022/06/09 07:47:13;;;;;;;0.00;0.00;;;19.90;72.40;;;;;;5037985;28;20073;-90
2022/06/09 07:49:39;;;;;;;0.20;0.20;;;18.60;77.30;;;;;;5041992;28;20108;-91
2022/06/09 07:52:05;;;;;;;0.20;0.20;;;18.60;75.80;;;;;;5028427;28;20523;-90
2022/06/09 07:54:30;;;;;;;0.00;0.00;;;18.90;75.90;;;;;;5037282;28;20037;-90
2022/06/09 07:56:56;;;;;;;1.40;0.77;;;18.90;73.20;;;;;;5047184;28;20095;-89
2022/06/09 07:59:22;;;;;;;0.30;0.17;;;18.50;72.00;;;;;;5029610;28;20856;-89
2022/06/09 08:01:47;;;;;;;0.10;0.10;;;19.40;69.90;;;;;;5041452;28;20033;-90
2022/06/09 08:04:15;;;;;;;0.00;0.00;;;21.10;68.10;;;;;;5046418;28;20025;-89
2022/06/09 08:06:41;;;;;;;0.00;0.00;;;22.20;64.30;;;;;;5046917;28;20415;-90
2022/06/09 08:09:07;;;;;;;0.10;0.10;;;21.40;62.90;;;;;;5045802;28;20033;-90
2022/06/09 08:11:37;;;;;;;0.00;0.00;;;22.90;60.70;;;;;;5021385;28;20030;-90
2022/06/09 08:14:03;;;;;;;0.15;0.15;;;21.80;62.50;;;;;;5025486;28;20049;-90
2022/06/09 08:16:30;;;;;;;;;;;20.80;66.10;;;;;;5026659;28;20025;-90
2022/06/09 08:18:57;;;;;;;0.30;0.30;;;22.10;66.00;;;;;;5048171;28;19958;-90
2022/06/09 08:21:24;;;;;;;0.00;0.00;;;23.00;61.90;;;;;;5047039;28;20025;-90
2022/06/09 08:23:50;;;;;;;0.00;0.00;;;22.50;61.60;;;;;;5047685;28;20029;-90
2022/06/09 08:26:15;;;;;;;0.00;0.00;;;22.80;62.00;;;;;;5028360;28;20025;-90
2022/06/09 08:28:41;;;;;;;0.00;0.00;;;22.20;59.80;;;;;;5044627;28;20036;-89
2022/06/09 08:31:07;;;;;;;0.17;0.17;;;20.40;62.70;;;;;;5030083;28;20055;-91
2022/06/09 08:33:33;;;;;;;0.00;0.00;;;19.90;65.50;;;;;;5030088;28;20692;-91
2022/06/09 08:35:59;;;;;;;0.60;0.32;;;19.10;68.50;;;;;;5046728;28;20025;-90
2022/06/09 08:38:25;;;;;;;0.10;0.10;;;18.50;67.70;;;;;;5030943;28;20037;-90
2022/06/09 08:41:17;;;;;;;0.00;0.00;;;17.90;65.00;;;;;;5044876;28;20036;-89
2022/06/09 08:43:53;;;;;;;0.00;0.00;;;17.90;70.30;;;;;;5029505;28;20530;-90
2022/06/09 08:46:24;;;;;;;0.00;0.00;;;18.00;69.50;;;;;;5044907;28;20033;-90
2022/06/09 08:48:54;;;;;;;0.10;0.10;;;17.80;71.50;;;;;;5016572;28;20057;-90
2022/06/09 08:51:40;;;;;;;4.63;1.65;;;18.00;69.60;;;;;;5029655;28;20090;-90
2022/06/09 08:54:26;;;;;;;0.10;0.10;;;18.10;69.60;;;;;;5046925;28;20533;-90
2022/06/09 08:56:53;;;;;;;0.00;0.00;;;18.70;69.90;;;;;;5036559;28;20037;-89
2022/06/09 08:59:29;;;;;;;0.57;0.38;;;19.80;67.70;;;;;;5048093;28;20064;-89
2022/06/09 09:01:59;;;;;;;0.03;0.03;;;19.50;67.50;;;;;;5045806;28;20064;-89
2022/06/09 09:04:37;;;;;;;0.00;0.00;;;18.80;68.90;;;;;;5025186;28;20143;-89
2022/06/09 09:07:26;;;;;;;0.00;0.00;;;19.20;69.80;;;;;;5028305;28;20107;-90
2022/06/09 09:09:58;;;;;;;2.63;0.50;;;20.10;67.30;;;;;;5020304;28;20029;-89
2022/06/09 09:12:38;;;;;;;0.45;0.30;;;24.50;62.20;;;;;;5044933;28;20029;-90
2022/06/09 09:15:03;;;;;;;1.23;0.32;;;27.50;55.90;;;;;;5045446;28;20523;-89
2022/06/09 09:17:41;;;;;;;0.37;0.37;;;30.50;48.60;;;;;;5037609;28;20025;-89
2022/06/09 09:20:34;;;;;;;0.22;0.10;;;30.50;48.00;;;;;;5046775;28;20029;-91
2022/06/09 09:23:17;;;;;;;0.00;0.00;;;28.70;51.50;;;;;;5029117;28;20454;-90
2022/06/09 09:25:57;;;;;;;0.00;0.00;;;27.70;52.60;;;;;;5046961;28;20600;-90
2022/06/09 09:28:27;;;;;;;0.80;0.20;;;30.10;49.60;;;;;;5040149;28;20385;-91
2022/06/09 09:30:59;;;;;;;0.00;0.00;;;28.00;49.90;;;;;;5041401;28;20041;-91
2022/06/09 09:33:26;;;;;;;0.00;0.00;;;25.00;53.10;;;;;;5026922;28;20037;-89
2022/06/09 09:36:15;;;;;;;0.00;0.00;;;23.20;55.60;;;;;;5044542;28;20087;-90
2022/06/09 09:38:48;;;;;;;0.17;0.10;;;22.00;59.80;;;;;;5039847;28;20033;-90
2022/06/09 09:41:31;;;;;;;0.00;0.00;;;21.00;63.50;;;;;;5028110;28;20028;-90
2022/06/09 09:43:58;;;;;;;0.20;0.20;;;20.30;65.20;;;;;;5029900;28;20037;-91
2022/06/09 09:46:31;;;;;;;0.00;0.00;;;19.80;65.40;;;;;;5027980;28;20037;-85
2022/06/09 09:49:01;;;;;;;0.00;0.00;;;19.30;68.10;;;;;;5030814;28;20539;-86
2022/06/09 09:51:37;;;;;;;0.08;0.08;;;19.40;68.20;;;;;;5024172;28;20035;-85
2022/06/09 09:54:09;;;;;;;;;;;19.20;68.60;;;;;;5023721;28;20128;-85
2022/06/09 09:56:37;;;;;;;3.20;0.80;;;19.60;69.00;;;;;;5043234;28;20752;-86
2022/06/09 09:59:24;;;;;;;0.00;0.00;;;20.30;67.70;;;;;;5039819;28;20021;-85
2022/06/09 10:10:22;;;;;;;0.00;0.00;;;22.60;62.60;;;;;;5033116;28;20074;-86
2022/06/09 10:12:48;;;;;;;0.08;0.08;;;21.80;61.00;;;;;;5024286;28;20510;-86
2022/06/09 10:15:17;;;;;;;2.10;1.00;;;22.00;62.40;;;;;;5039485;28;20111;-86
2022/06/09 10:18:09;;;;;;;0.00;0.00;;;22.70;63.00;;;;;;5043204;28;20056;-85
2022/06/09 10:20:43;;;;;;;0.30;0.30;;;23.20;60.50;;;;;;5042998;28;20024;-85
2022/06/09 10:23:15;;;;;;;0.00;0.00;;;25.60;55.60;;;;;;5041730;28;20114;-85
2022/06/09 10:25:53;;;;;;;1.17;0.32;;;25.00;56.80;;;;;;5041287;28;20064;-86
2022/06/09 10:28:37;;;;;;;3.60;1.55;;;24.90;52.80;;;;;;5039737;28;20029;-85
2022/06/09 10:31:31;;;;;;;0.00;0.00;;;24.50;57.00;;;;;;5036308;28;20025;-85
2022/06/09 10:34:11;;;;;;;0.00;0.00;;;25.60;54.00;;;;;;5023976;28;20044;-85
2022/06/09 10:36:57;;;;;;;0.20;0.20;;;24.00;57.50;;;;;;5027071;28;20511;-85
2022/06/09 10:40:11;;;;;;;0.00;0.00;;;24.80;55.10;;;;;;5035378;28;20091;-85
2022/06/09 10:42:45;;;;;;;0.00;0.00;;;24.20;56.70;;;;;;5037164;28;20639;-85
2022/06/09 10:45:45;;;;;;;0.00;0.00;;;23.40;58.40;;;;;;5034037;28;20471;-89
2022/06/09 10:57:28;;;;;;;0.00;0.00;;;23.20;56.30;;;;;;5038522;28;20039;-91
2022/06/09 11:00:31;;;;;;;6.63;0.30;;;22.30;57.50;;;;;;5045972;28;20094;-90
2022/06/09 11:03:00;;;;;;;3.65;0.90;;;21.60;60.80;;;;;;4964669;28;20034;-89
2022/06/09 11:05:55;;;;;;;1.00;0.65;;;21.20;60.20;;;;;;4963413;28;20054;-89
2022/06/09 11:08:28;;;;;;;0.20;0.20;;;21.00;60.60;;;;;;4964604;28;20829;-90
2022/06/09 11:11:04;;;;;;;0.00;0.00;;;20.90;61.40;;;;;;4948884;28;20038;-90
2022/06/09 11:13:53;;;;;;;1.02;0.65;;;20.80;61.60;;;;;;4964418;28;20042;-90
2022/06/09 11:16:31;;;;;;;0.73;0.08;;;20.40;64.40;;;;;;4907383;29;20160;-91
2022/06/09 11:19:19;;;;;;;0.00;0.00;;;20.70;64.60;;;;;;4896093;29;20068;-90
2022/06/09 11:22:27;;;;;;;0.10;0.10;;;20.80;64.10;;;;;;4902036;29;20036;-90
2022/06/09 11:25:20;;;;;;;0.30;0.30;;;20.50;61.70;;;;;;4875642;29;20052;-90
2022/06/09 11:27:49;;;;;;;0.00;0.00;;;21.40;62.60;;;;;;4890343;29;20046;-90
2022/06/09 11:30:34;;;;;;;0.17;0.17;;;21.80;61.20;;;;;;4872806;29;20040;-90
2022/06/09 11:33:15;;;;;;;0.17;0.17;;;21.60;61.90;;;;;;4889226;29;20048;-90
2022/06/09 11:35:54;;;;;;;1.23;0.65;;;21.50;62.30;;;;;;4876762;29;20048;-90
2022/06/09 11:38:37;;;;;;;0.70;0.63;;;21.90;64.50;;;;;;4902606;29;20047;-89
2022/06/09 11:41:23;;;;;;;0.10;0.10;;;21.10;60.20;;;;;;4930412;29;20098;-89
2022/06/09 11:44:10;;;;;;;0.68;0.20;;;22.10;58.90;;;;;;4929873;29;20035;-90
2022/06/09 11:46:39;;;;;;;0.00;0.00;;;22.50;60.30;;;;;;4913215;29;20042;-91
2022/06/09 11:49:13;;;;;;;0.00;0.00;;;22.70;59.30;;;;;;4918157;29;20055;-91
2022/06/09 11:51:40;;;;;;;0.85;0.45;;;22.70;60.20;;;;;;4931296;29;20054;-91
2022/06/09 11:54:28;;;;;;;0.10;0.10;;;22.60;58.60;;;;;;4979428;28;20045;-92
2022/06/09 11:57:19;;;;;;;0.75;0.75;;;22.80;60.60;;;;;;5000596;28;20073;-91
2022/06/09 12:00:11;;;;;;;2.40;1.17;;;22.40;59.60;;;;;;5012361;28;20056;-91
2022/06/09 12:02:39;;;;;;;0.00;0.00;;;22.30;58.80;;;;;;5049080;28;20091;-92
2022/06/09 12:05:33;;;;;;;0.00;0.00;;;22.60;58.00;;;;;;5048997;28;20790;-90
2022/06/09 12:08:14;;;;;;;0.00;0.00;;;23.30;59.60;;;;;;5045960;28;20488;-91
2022/06/09 12:10:58;;;;;;;0.13;0.10;;;23.30;56.40;;;;;;5039830;28;20029;-90
2022/06/09 12:13:36;;;;;;;0.00;0.00;;;23.20;58.50;;;;;;5015496;28;20725;-91
2022/06/09 12:16:35;;;;;;;0.00;0.00;;;23.00;59.30;;;;;;5040360;28;20029;-92
2022/06/09 12:19:13;;;;;;;0.00;0.00;;;22.60;58.10;;;;;;5037028;28;20025;-91
2022/06/09 12:21:45;;;;;;;0.03;0.03;;;22.10;59.00;;;;;;5020237;28;20022;-91
2022/06/09 12:24:13;;;;;;;0.10;0.05;;;22.00;59.50;;;;;;5018524;28;20087;-91
2022/06/09 12:26:44;;;;;;;0.60;0.30;;;22.00;57.70;;;;;;5030772;28;20026;-90
2022/06/09 12:29:35;;;;;;;0.00;0.00;;;22.10;58.20;;;;;;5044881;28;20489;-91
2022/06/09 12:32:09;;;;;;;0.28;0.28;;;22.00;57.90;;;;;;5049919;28;20412;-90
2022/06/09 12:34:42;;;;;;;0.47;0.40;;;22.00;59.70;;;;;;5046920;28;20123;-91
2022/06/09 12:37:22;;;;;;;1.17;0.30;;;22.30;57.80;;;;;;5046314;28;20548;-91
2022/06/09 12:39:52;;;;;;;0.30;0.20;;;22.50;60.30;;;;;;5048372;28;20122;-91
2022/06/09 12:42:26;;;;;;;9.70;0.35;;;22.20;59.40;;;;;;5046579;28;20124;-90
2022/06/09 12:45:19;;;;;;;0.30;0.30;;;22.40;58.50;;;;;;5023466;28;20027;-91
2022/06/09 12:48:11;;;;;;;1.13;0.55;;;22.00;58.40;;;;;;5022465;28;20056;-90
2022/06/09 12:50:39;;;;;;;0.15;0.15;;;21.90;58.10;;;;;;5043761;28;20578;-91
2022/06/09 12:53:07;;;;;;;0.10;0.10;;;22.00;59.30;;;;;;5047733;28;20040;-90
2022/06/09 12:55:36;;;;;;;0.00;0.00;;;22.00;60.10;;;;;;5048693;28;20032;-91
2022/06/09 12:58:18;;;;;;;0.00;0.00;;;21.60;60.30;;;;;;5030959;28;20021;-90
2022/06/09 13:00:55;;;;;;;0.00;0.00;;;21.30;63.50;;;;;;5045705;28;20059;-91
2022/06/09 13:03:42;;;;;;;0.98;0.20;;;21.10;64.20;;;;;;5026139;28;20382;-90
2022/06/09 13:06:26;;;;;;;0.00;0.00;;;20.80;64.50;;;;;;5029536;28;20034;-91
2022/06/09 13:09:02;;;;;;;0.08;0.08;;;20.70;64.50;;;;;;5011419;28;20083;-90
2022/06/09 13:14:34;;;;;;;0.00;0.00;;;20.80;64.10;;;;;;4985276;28;20563;-90
2022/06/09 13:17:07;;;;;;;0.00;0.00;;;20.80;65.20;;;;;;4979259;28;20054;-89
2022/06/09 13:19:34;;;;;;;0.82;0.20;;;20.30;64.30;;;;;;4954762;28;20617;-89
2022/06/09 13:22:06;;;;;;;0.05;0.05;;;20.30;66.60;;;;;;4973935;28;20077;-89
2022/06/09 13:24:38;;;;;;;0.45;0.45;;;20.30;67.20;;;;;;4966153;28;20070;-89
2022/06/09 13:27:11;;;;;;;0.03;0.03;;;20.40;66.40;;;;;;4982891;28;20121;-89
2022/06/09 13:29:57;;;;;;;0.32;0.25;;;20.20;66.60;;;;;;4977900;28;20034;-90
2022/06/09 13:32:36;;;;;;;0.10;0.10;;;20.40;66.60;;;;;;4968046;28;20538;-90
2022/06/09 13:35:38;;;;;;;0.08;0.05;;;20.30;67.40;;;;;;4978603;28;20034;-89